Time;durP1;ratioP1;P1;durP2;ratioP2;P2;SDS_P1;SDS_P2;PMS_P1;PMS_P2;Temp;Humidity;BMP_temperature;BMP_pressure;BME280_temperature;BME280_humidity;BME280_pressure;Samples;Min_cycle;Max_cycle;Signal;HPM_P1;HPM_P2
2024/01/21 00:00:31;;;;;;;16.10;15.20;;;-1.00;99.90;;;;;;5068159;28;20668;-66
2024/01/21 00:02:59;;;;;;;15.57;14.77;;;-1.00;99.90;;;;;;5075906;28;20231;-65
2024/01/21 00:05:26;;;;;;;15.40;14.50;;;-1.10;99.90;;;;;;5071486;28;20223;-66
2024/01/21 00:07:52;;;;;;;16.47;15.57;;;-1.10;99.90;;;;;;5075428;28;20231;-66
2024/01/21 00:10:20;;;;;;;14.67;13.87;;;-1.10;99.90;;;;;;5067029;28;20211;-66
2024/01/21 00:12:46;;;;;;;14.57;13.77;;;-1.10;99.90;;;;;;5068494;28;20217;-66
2024/01/21 00:15:13;;;;;;;16.20;15.30;;;-1.10;99.90;;;;;;5070170;28;20231;-67
2024/01/21 00:17:40;;;;;;;16.40;15.50;;;-1.10;99.90;;;;;;5079098;28;20214;-67
2024/01/21 00:20:09;;;;;;;15.60;14.70;;;-1.20;99.90;;;;;;5074081;28;20271;-66
2024/01/21 00:22:35;;;;;;;16.33;15.43;;;-1.30;99.90;;;;;;5078527;28;20207;-68
2024/01/21 00:25:02;;;;;;;15.30;14.48;;;-1.30;99.90;;;;;;5072395;28;20298;-66
2024/01/21 00:27:29;;;;;;;15.13;14.23;;;-1.40;99.90;;;;;;5070815;28;20941;-66
2024/01/21 00:29:55;;;;;;;15.40;14.50;;;-1.40;99.90;;;;;;5069246;28;20219;-67
2024/01/21 00:32:22;;;;;;;16.07;15.27;;;-1.40;99.90;;;;;;5072479;28;20667;-64
2024/01/21 00:34:49;;;;;;;15.20;14.40;;;-1.50;99.90;;;;;;5071497;28;20219;-65
2024/01/21 00:37:17;;;;;;;16.30;15.40;;;-1.50;99.90;;;;;;5074985;28;20638;-67
2024/01/21 00:39:43;;;;;;;16.10;15.10;;;-1.50;99.90;;;;;;5073687;28;20207;-68
2024/01/21 00:42:10;;;;;;;15.57;14.67;;;-1.50;99.90;;;;;;5069992;28;20552;-65
2024/01/21 00:44:37;;;;;;;15.70;14.80;;;-1.50;99.90;;;;;;5076820;28;20219;-67
2024/01/21 00:47:04;;;;;;;16.67;15.67;;;-1.60;99.90;;;;;;5082598;28;20215;-67
2024/01/21 00:49:31;;;;;;;15.93;15.10;;;-1.80;99.90;;;;;;5082821;28;20220;-68
2024/01/21 00:51:58;;;;;;;16.07;15.17;;;-1.80;99.90;;;;;;5092945;28;20212;-70
2024/01/21 00:54:26;;;;;;;15.23;14.43;;;-1.90;99.90;;;;;;5090075;28;20233;-67
2024/01/21 00:56:53;;;;;;;16.30;15.35;;;-2.10;99.90;;;;;;5075428;28;20215;-66
2024/01/21 00:59:19;;;;;;;16.17;15.27;;;-2.30;99.90;;;;;;5088708;28;20195;-69
2024/01/21 01:01:46;;;;;;;15.80;14.90;;;-2.40;99.90;;;;;;5088198;28;20199;-67
2024/01/21 01:04:13;;;;;;;15.27;14.37;;;-2.50;99.90;;;;;;5077513;28;20203;-66
2024/01/21 01:06:40;;;;;;;16.37;15.47;;;-2.50;99.90;;;;;;5075409;28;20678;-68
2024/01/21 01:09:06;;;;;;;16.50;15.60;;;-2.70;99.90;;;;;;5072225;28;20223;-67
2024/01/21 01:11:35;;;;;;;16.43;15.53;;;-2.80;99.90;;;;;;5081155;28;20541;-66
2024/01/21 01:14:02;;;;;;;17.27;16.27;;;-2.90;99.90;;;;;;5083558;28;20215;-66
2024/01/21 01:16:29;;;;;;;17.77;16.77;;;-2.90;99.90;;;;;;5082223;28;20543;-68
2024/01/21 01:18:57;;;;;;;19.03;17.73;;;-2.90;99.90;;;;;;5072465;28;20607;-66
2024/01/21 01:21:24;;;;;;;18.17;17.17;;;-2.90;99.90;;;;;;5076281;28;20210;-65
2024/01/21 01:23:50;;;;;;;17.03;16.13;;;-3.00;99.90;;;;;;5071760;28;20836;-66
2024/01/21 01:26:17;;;;;;;16.13;15.23;;;-3.00;99.90;;;;;;5076786;28;20219;-65
2024/01/21 01:28:45;;;;;;;17.80;16.63;;;-3.10;99.90;;;;;;5072833;28;20242;-65
2024/01/21 01:31:17;;;;;;;15.90;15.00;;;-3.30;99.90;;;;;;5072636;28;20632;-67
2024/01/21 01:33:44;;;;;;;15.73;14.93;;;-3.40;99.90;;;;;;5071407;28;20196;-67
2024/01/21 01:36:11;;;;;;;15.77;14.87;;;-3.50;99.90;;;;;;5075158;28;20940;-67
2024/01/21 01:38:38;;;;;;;15.13;14.20;;;-3.50;99.90;;;;;;5075526;28;20207;-65
2024/01/21 01:41:05;;;;;;;15.37;14.47;;;-3.60;99.90;;;;;;5071785;28;20702;-68
2024/01/21 01:43:32;;;;;;;14.53;13.73;;;-3.60;99.90;;;;;;5071381;28;20199;-65
2024/01/21 01:46:01;;;;;;;14.27;13.48;;;-3.60;99.90;;;;;;5073198;28;20242;-66
2024/01/21 01:48:28;;;;;;;14.05;13.30;;;-3.60;99.90;;;;;;5072041;28;20215;-66
2024/01/21 01:50:58;;;;;;;14.38;13.55;;;-3.50;99.90;;;;;;5070389;28;20203;-66
2024/01/21 01:53:25;;;;;;;14.27;13.47;;;-3.40;99.90;;;;;;5073082;28;20195;-65
2024/01/21 01:55:52;;;;;;;14.60;13.80;;;-3.40;99.90;;;;;;5073230;28;20231;-67
2024/01/21 01:58:19;;;;;;;14.70;13.90;;;-3.40;99.90;;;;;;5069906;28;20200;-65
2024/01/21 02:00:47;;;;;;;13.90;13.20;;;-3.40;99.90;;;;;;5072324;28;20655;-66
2024/01/21 02:03:15;;;;;;;14.45;13.65;;;-3.40;99.90;;;;;;5076399;28;20199;-66
2024/01/21 02:05:42;;;;;;;13.93;13.23;;;-3.40;99.90;;;;;;5072427;28;20272;-65
2024/01/21 02:08:09;;;;;;;13.65;12.93;;;-3.30;99.90;;;;;;5078278;28;20606;-66
2024/01/21 02:10:36;;;;;;;15.40;14.60;;;-3.20;99.90;;;;;;5073921;28;20204;-69
2024/01/21 02:13:02;;;;;;;14.30;13.50;;;-3.20;99.90;;;;;;5080029;28;20207;-66
2024/01/21 02:15:29;;;;;;;15.03;14.13;;;-3.20;99.90;;;;;;5086918;28;20704;-65
2024/01/21 02:17:56;;;;;;;14.10;13.40;;;-3.30;99.90;;;;;;5077314;28;20247;-67
2024/01/21 02:20:24;;;;;;;14.55;13.73;;;-3.40;99.90;;;;;;5077854;28;20464;-66
2024/01/21 02:22:51;;;;;;;14.85;14.05;;;-3.40;99.90;;;;;;5082654;28;20204;-67
2024/01/21 02:25:20;;;;;;;13.80;13.10;;;-3.40;99.90;;;;;;5083680;28;20242;-67
2024/01/21 02:27:46;;;;;;;16.47;15.47;;;-3.30;99.90;;;;;;5079955;28;20215;-67
2024/01/21 02:30:13;;;;;;;15.10;14.30;;;-3.40;99.90;;;;;;5079648;28;20210;-67
2024/01/21 02:32:40;;;;;;;15.77;14.87;;;-3.40;99.90;;;;;;5083786;28;20196;-68
2024/01/21 02:35:07;;;;;;;16.38;15.38;;;-3.30;99.90;;;;;;5078483;28;20219;-66
2024/01/21 02:37:34;;;;;;;15.70;14.80;;;-3.30;99.90;;;;;;5072946;28;20667;-67
2024/01/21 02:40:01;;;;;;;16.40;15.50;;;-3.30;99.90;;;;;;5074064;28;20203;-66
2024/01/21 02:42:29;;;;;;;15.00;14.13;;;-3.20;99.90;;;;;;5082970;28;20204;-66
2024/01/21 02:44:57;;;;;;;15.23;14.43;;;-3.20;99.90;;;;;;5079989;28;20231;-67
2024/01/21 02:47:24;;;;;;;14.67;13.87;;;-3.10;99.90;;;;;;5074325;28;20212;-68
2024/01/21 02:49:51;;;;;;;15.95;15.07;;;-3.20;99.90;;;;;;5072602;28;20565;-66
2024/01/21 02:52:18;;;;;;;15.35;14.45;;;-3.20;99.90;;;;;;5075353;28;20207;-68
2024/01/21 02:54:44;;;;;;;14.38;13.68;;;-3.30;99.90;;;;;;5075820;28;20223;-66
2024/01/21 02:57:11;;;;;;;14.93;14.13;;;-3.30;99.90;;;;;;5071527;28;20206;-66
2024/01/21 02:59:39;;;;;;;15.43;14.53;;;-3.30;99.90;;;;;;5071163;28;20209;-65
2024/01/21 03:02:06;;;;;;;15.50;14.60;;;-3.30;99.90;;;;;;5071957;28;20290;-66
2024/01/21 03:04:32;;;;;;;14.97;14.27;;;-3.30;99.90;;;;;;5072011;28;20230;-65
2024/01/21 03:06:59;;;;;;;15.63;14.83;;;-3.30;99.90;;;;;;5070804;28;20214;-68
2024/01/21 03:09:26;;;;;;;14.98;14.18;;;-3.40;99.90;;;;;;5069959;28;20231;-67
2024/01/21 03:11:56;;;;;;;14.43;13.65;;;-3.40;99.90;;;;;;5071165;28;20217;-66
2024/01/21 03:14:22;;;;;;;14.88;14.07;;;-3.50;99.90;;;;;;5071526;28;20223;-65
2024/01/21 03:16:51;;;;;;;14.90;14.00;;;-3.50;99.90;;;;;;5070886;28;20207;-67
2024/01/21 03:19:17;;;;;;;14.40;13.60;;;-3.60;99.90;;;;;;5070607;28;20195;-68
2024/01/21 03:21:44;;;;;;;14.43;13.67;;;-3.60;99.90;;;;;;5071061;28;20628;-66
2024/01/21 03:24:11;;;;;;;14.70;13.90;;;-3.60;99.90;;;;;;5071413;28;20207;-67
2024/01/21 03:26:39;;;;;;;13.77;13.07;;;-3.50;99.90;;;;;;5073232;28;20306;-66
2024/01/21 03:29:05;;;;;;;15.23;14.43;;;-3.50;99.90;;;;;;5071605;28;20228;-67
2024/01/21 03:31:32;;;;;;;13.77;13.07;;;-3.40;99.90;;;;;;5076561;28;20607;-66
2024/01/21 03:34:00;;;;;;;15.25;14.35;;;-3.30;99.90;;;;;;5072312;28;20203;-69
2024/01/21 03:36:27;;;;;;;14.73;14.00;;;-3.30;99.90;;;;;;5073723;28;20207;-68
2024/01/21 03:38:54;;;;;;;15.73;14.60;;;-3.20;99.90;;;;;;5071246;28;20199;-67
2024/01/21 03:41:20;;;;;;;12.93;12.30;;;-3.20;99.90;;;;;;5070640;28;20295;-65
2024/01/21 03:43:47;;;;;;;14.57;13.87;;;-3.10;99.90;;;;;;5071353;28;20206;-67
2024/01/21 03:46:14;;;;;;;14.82;14.02;;;-3.10;99.90;;;;;;5067859;28;20248;-65
2024/01/21 03:48:41;;;;;;;16.63;15.50;;;-3.00;99.90;;;;;;5068545;28;20219;-68
2024/01/21 03:51:11;;;;;;;13.80;13.10;;;-3.00;99.90;;;;;;5070152;28;20588;-68
2024/01/21 03:53:40;;;;;;;13.35;12.75;;;-3.00;99.90;;;;;;5069607;28;20214;-66
2024/01/21 03:56:07;;;;;;;14.77;13.97;;;-3.10;99.90;;;;;;5068493;28;20227;-66
2024/01/21 03:58:34;;;;;;;13.30;12.70;;;-3.10;99.90;;;;;;5069149;28;20195;-67
2024/01/21 04:01:03;;;;;;;13.55;12.85;;;-3.00;99.90;;;;;;5066887;28;20207;-67
2024/01/21 04:03:29;;;;;;;13.40;12.80;;;-3.00;99.90;;;;;;5071475;28;20203;-66
2024/01/21 04:05:56;;;;;;;14.02;13.32;;;-3.00;99.90;;;;;;5072996;28;20847;-70
2024/01/21 04:08:24;;;;;;;12.57;12.07;;;-3.00;99.90;;;;;;5071127;28;20227;-68
2024/01/21 04:10:53;;;;;;;14.10;13.40;;;-2.90;99.90;;;;;;5078180;28;20225;-66
2024/01/21 04:13:20;;;;;;;14.50;13.70;;;-2.80;99.90;;;;;;5075435;28;20207;-68
2024/01/21 04:15:47;;;;;;;13.43;12.83;;;-2.90;99.90;;;;;;5069513;28;20239;-66
2024/01/21 04:18:14;;;;;;;13.82;13.13;;;-2.80;99.90;;;;;;5068613;28;20211;-67
2024/01/21 04:20:40;;;;;;;13.87;13.17;;;-2.70;99.90;;;;;;5068695;28;20203;-67
2024/01/21 04:23:07;;;;;;;13.50;12.90;;;-2.50;99.90;;;;;;5081337;28;20207;-68
2024/01/21 04:25:35;;;;;;;13.80;13.10;;;-2.50;99.90;;;;;;5079007;28;20230;-66
2024/01/21 04:28:02;;;;;;;13.25;12.65;;;-2.40;99.90;;;;;;5072655;28;20211;-65
2024/01/21 04:30:29;;;;;;;13.53;12.90;;;-2.40;99.90;;;;;;5073633;28;20271;-65
2024/01/21 04:32:56;;;;;;;13.03;12.43;;;-2.40;99.90;;;;;;5069176;28;20212;-67
2024/01/21 04:35:23;;;;;;;12.60;12.00;;;-2.40;99.90;;;;;;5074780;28;20219;-67
2024/01/21 04:37:49;;;;;;;12.93;12.30;;;-2.30;99.90;;;;;;5079670;28;20206;-68
2024/01/21 04:40:16;;;;;;;13.23;12.52;;;-2.30;99.90;;;;;;5080887;28;20658;-66
2024/01/21 04:42:44;;;;;;;13.30;12.63;;;-2.40;99.90;;;;;;5078143;28;20207;-67
2024/01/21 04:45:11;;;;;;;13.60;12.90;;;-2.40;99.90;;;;;;5067982;28;20223;-66
2024/01/21 04:47:38;;;;;;;12.70;12.10;;;-2.40;99.90;;;;;;5069649;28;20231;-68
2024/01/21 04:50:05;;;;;;;13.38;12.68;;;-2.40;99.90;;;;;;5065056;28;20238;-67
2024/01/21 04:52:32;;;;;;;13.60;12.90;;;-2.40;99.90;;;;;;5070566;28;20702;-66
2024/01/21 04:54:59;;;;;;;13.33;12.63;;;-2.40;99.90;;;;;;5065312;28;20242;-68
2024/01/21 04:57:25;;;;;;;12.77;12.17;;;-2.40;99.90;;;;;;5067445;28;20650;-67
2024/01/21 04:59:53;;;;;;;13.07;12.43;;;-2.40;99.90;;;;;;5068018;28;20207;-67
2024/01/21 05:02:20;;;;;;;12.18;11.57;;;-2.40;99.90;;;;;;5071246;28;20642;-66
2024/01/21 05:04:47;;;;;;;11.85;11.35;;;-2.40;99.90;;;;;;5069837;28;20223;-67
2024/01/21 05:07:13;;;;;;;11.87;11.27;;;-2.40;99.90;;;;;;5068598;28;20207;-68
2024/01/21 05:09:40;;;;;;;11.80;11.30;;;-2.40;99.90;;;;;;5069209;28;20230;-66
2024/01/21 05:12:07;;;;;;;11.67;11.07;;;-2.50;99.90;;;;;;5067377;28;20223;-66
2024/01/21 05:14:34;;;;;;;11.97;11.47;;;-2.40;99.90;;;;;;5066753;28;20227;-67
2024/01/21 05:17:03;;;;;;;12.20;11.60;;;-2.40;99.90;;;;;;5065822;28;20214;-66
2024/01/21 05:19:29;;;;;;;12.15;11.65;;;-2.50;99.90;;;;;;5068558;28;20286;-67
2024/01/21 05:21:56;;;;;;;12.47;11.87;;;-2.60;99.90;;;;;;5067348;28;20218;-67
2024/01/21 05:24:22;;;;;;;13.07;12.38;;;-2.60;99.90;;;;;;5067537;28;20226;-67
2024/01/21 05:26:48;;;;;;;12.50;11.90;;;-2.70;99.90;;;;;;5066470;28;20191;-65
2024/01/21 05:29:16;;;;;;;13.90;13.20;;;-2.70;99.90;;;;;;5068126;28;20226;-66
2024/01/21 05:31:42;;;;;;;13.17;12.57;;;-2.80;99.90;;;;;;5068587;28;20204;-66
2024/01/21 05:34:10;;;;;;;13.70;13.00;;;-2.80;99.90;;;;;;5070187;28;20203;-65
2024/01/21 05:36:38;;;;;;;13.70;13.00;;;-2.90;99.90;;;;;;5067395;28;20195;-67
2024/01/21 05:39:04;;;;;;;13.80;13.10;;;-2.90;99.90;;;;;;5071349;28;20684;-67
2024/01/21 05:41:31;;;;;;;13.55;12.95;;;-3.00;99.90;;;;;;5073025;28;20272;-66
2024/01/21 05:43:58;;;;;;;13.43;12.82;;;-3.00;99.90;;;;;;5071246;28;20211;-67
2024/01/21 05:46:25;;;;;;;13.83;13.13;;;-3.10;99.90;;;;;;5070566;28;20199;-67
2024/01/21 05:48:51;;;;;;;16.15;15.05;;;-3.10;99.90;;;;;;5070624;28;20219;-65
2024/01/21 05:51:19;;;;;;;12.77;12.18;;;-3.10;99.90;;;;;;5071574;28;20203;-67
2024/01/21 05:53:46;;;;;;;12.80;12.20;;;-3.10;99.90;;;;;;5067104;28;20208;-71
2024/01/21 05:56:13;;;;;;;13.43;12.73;;;-3.10;99.90;;;;;;5071937;28;20228;-67
2024/01/21 05:58:40;;;;;;;12.93;12.25;;;-3.10;99.90;;;;;;5070566;28;20200;-66
2024/01/21 06:01:06;;;;;;;12.50;11.90;;;-3.10;99.90;;;;;;5071220;28;20224;-67
2024/01/21 06:03:33;;;;;;;13.37;12.67;;;-3.00;99.90;;;;;;5071430;28;21009;-66
2024/01/21 06:06:00;;;;;;;12.27;11.67;;;-2.90;99.90;;;;;;5075081;28;20223;-66
2024/01/21 06:08:28;;;;;;;12.27;11.77;;;-2.90;99.90;;;;;;5084099;28;20214;-67
2024/01/21 06:10:55;;;;;;;12.15;11.55;;;-2.80;99.90;;;;;;5076894;28;20269;-66
2024/01/21 06:13:22;;;;;;;12.23;11.68;;;-2.70;99.90;;;;;;5074441;28;20231;-66
2024/01/21 06:15:49;;;;;;;12.57;11.98;;;-2.70;99.90;;;;;;5072899;28;20254;-67
2024/01/21 06:18:15;;;;;;;12.88;12.27;;;-2.60;99.90;;;;;;5071755;28;20226;-66
2024/01/21 06:20:42;;;;;;;12.73;12.13;;;-2.50;99.90;;;;;;5072002;28;20215;-65
2024/01/21 06:23:09;;;;;;;12.70;12.10;;;-2.50;99.90;;;;;;5069189;28;20261;-68
2024/01/21 06:25:37;;;;;;;13.35;12.65;;;-2.50;99.90;;;;;;5072884;28;20230;-66
2024/01/21 06:28:04;;;;;;;13.00;12.40;;;-2.40;99.90;;;;;;5072591;28;20203;-66
2024/01/21 06:30:31;;;;;;;12.33;11.83;;;-2.40;99.90;;;;;;5070985;28;20215;-68
2024/01/21 06:32:58;;;;;;;12.10;11.50;;;-2.40;99.90;;;;;;5071276;28;20298;-67
2024/01/21 06:35:26;;;;;;;13.32;12.63;;;-2.40;99.90;;;;;;5068585;28;20223;-65
2024/01/21 06:37:53;;;;;;;13.35;12.65;;;-2.40;99.90;;;;;;5071656;28;20222;-67
2024/01/21 06:40:20;;;;;;;12.30;11.80;;;-2.30;99.90;;;;;;5070271;28;20599;-66
2024/01/21 06:42:48;;;;;;;12.68;12.07;;;-2.30;99.90;;;;;;5068594;28;20210;-67
2024/01/21 06:45:15;;;;;;;13.10;12.50;;;-2.30;99.90;;;;;;5069535;28;20228;-66
2024/01/21 06:47:42;;;;;;;13.83;13.13;;;-2.30;99.90;;;;;;5071050;28;20204;-68
2024/01/21 06:50:10;;;;;;;13.27;12.63;;;-2.20;99.90;;;;;;5069863;28;20587;-66
2024/01/21 06:52:37;;;;;;;13.63;12.93;;;-2.20;99.90;;;;;;5071650;28;20225;-66
2024/01/21 06:55:04;;;;;;;13.37;12.67;;;-2.20;99.90;;;;;;5065987;28;20231;-66
2024/01/21 06:57:31;;;;;;;13.80;13.05;;;-2.10;99.90;;;;;;5073372;28;20196;-68
2024/01/21 06:59:59;;;;;;;13.20;12.60;;;-2.20;99.90;;;;;;5074973;28;20195;-66
2024/01/21 07:02:26;;;;;;;11.93;11.43;;;-2.10;99.90;;;;;;5072401;28;20748;-66
2024/01/21 07:04:53;;;;;;;12.80;12.20;;;-2.10;99.90;;;;;;5067602;28;20231;-66
2024/01/21 07:07:20;;;;;;;12.47;11.87;;;-2.10;99.90;;;;;;5071698;28;20195;-67
2024/01/21 07:09:47;;;;;;;11.93;11.43;;;-2.10;99.90;;;;;;5071441;28;20222;-66
2024/01/21 07:12:14;;;;;;;12.67;12.07;;;-2.10;99.90;;;;;;5070393;28;20215;-68
2024/01/21 07:14:40;;;;;;;12.20;11.70;;;-2.10;99.90;;;;;;5071927;28;20219;-66
2024/01/21 07:17:09;;;;;;;12.57;11.98;;;-2.10;99.90;;;;;;5066655;28;20701;-67
2024/01/21 07:19:35;;;;;;;12.18;11.57;;;-2.10;99.90;;;;;;5072459;28;20196;-66
2024/01/21 07:22:02;;;;;;;11.40;10.90;;;-2.10;99.90;;;;;;5067226;28;20205;-65
2024/01/21 07:24:29;;;;;;;12.03;11.53;;;-2.10;99.90;;;;;;5072088;28;20223;-66
2024/01/21 07:26:55;;;;;;;12.13;11.53;;;-2.00;99.90;;;;;;5072076;28;20577;-68
2024/01/21 07:29:22;;;;;;;10.77;10.27;;;-1.90;99.90;;;;;;5068741;28;20232;-68
2024/01/21 07:31:49;;;;;;;11.50;11.00;;;-1.90;99.90;;;;;;5068262;28;20907;-66
2024/01/21 07:34:17;;;;;;;11.30;10.80;;;-1.80;99.90;;;;;;5070171;28;20278;-67
2024/01/21 07:36:44;;;;;;;11.43;10.93;;;-1.80;99.90;;;;;;5076110;28;20654;-66
2024/01/21 07:39:11;;;;;;;11.57;11.00;;;-1.70;99.90;;;;;;5084128;28;20210;-67
2024/01/21 07:41:38;;;;;;;10.80;10.33;;;-1.70;99.90;;;;;;5086306;28;20211;-67
2024/01/21 07:44:05;;;;;;;11.13;10.63;;;-1.70;99.90;;;;;;5083195;28;20204;-70
2024/01/21 07:46:31;;;;;;;11.23;10.73;;;-1.70;99.90;;;;;;5085461;28;20207;-70
2024/01/21 07:48:58;;;;;;;11.50;11.00;;;-1.70;99.90;;;;;;5084665;28;20802;-67
2024/01/21 07:51:26;;;;;;;10.80;10.40;;;-1.60;99.90;;;;;;5079904;28;20204;-69
2024/01/21 07:53:53;;;;;;;11.70;11.20;;;-1.50;99.90;;;;;;5088276;28;20204;-68
2024/01/21 07:56:20;;;;;;;11.50;11.00;;;-1.40;99.90;;;;;;5083820;28;20231;-71
2024/01/21 07:58:46;;;;;;;12.23;11.60;;;-1.40;99.90;;;;;;5082777;28;20196;-67
2024/01/21 08:01:13;;;;;;;12.03;11.43;;;-1.40;99.90;;;;;;5082750;28;20662;-69
2024/01/21 08:03:40;;;;;;;11.27;10.77;;;-1.40;99.90;;;;;;5082801;28;20674;-68
2024/01/21 08:06:08;;;;;;;12.00;11.40;;;-1.30;99.90;;;;;;5080156;28;20235;-68
2024/01/21 08:08:36;;;;;;;11.67;11.07;;;-1.30;99.90;;;;;;5071524;28;20203;-67
2024/01/21 08:11:03;;;;;;;11.00;10.50;;;-1.20;99.90;;;;;;5069979;28;20223;-67
2024/01/21 08:13:30;;;;;;;10.93;10.43;;;-1.20;99.90;;;;;;5067755;28;20202;-68
2024/01/21 08:15:57;;;;;;;10.77;10.27;;;-1.10;99.90;;;;;;5068350;28;20253;-67
2024/01/21 08:18:24;;;;;;;11.40;10.90;;;-1.10;99.90;;;;;;5073054;28;20921;-66
2024/01/21 08:20:51;;;;;;;11.75;11.25;;;-1.00;99.90;;;;;;5072251;28;20210;-67
2024/01/21 08:23:19;;;;;;;10.73;10.33;;;-0.90;99.90;;;;;;5073835;28;20663;-67
2024/01/21 08:25:47;;;;;;;10.70;10.30;;;-0.90;99.90;;;;;;5088427;28;20223;-67
2024/01/21 08:28:13;;;;;;;11.23;10.77;;;-0.70;99.90;;;;;;5080976;28;20271;-69
2024/01/21 08:30:40;;;;;;;11.53;11.03;;;-0.70;99.90;;;;;;5078735;28;20226;-66
2024/01/21 08:33:07;;;;;;;10.80;10.30;;;-0.60;99.90;;;;;;5076296;28;20218;-71
2024/01/21 08:35:34;;;;;;;11.40;10.90;;;-0.50;99.90;;;;;;5072504;28;20626;-67
2024/01/21 08:38:01;;;;;;;11.10;10.70;;;-0.40;99.90;;;;;;5078464;28;20202;-66
2024/01/21 08:40:28;;;;;;;12.03;11.53;;;-0.30;99.90;;;;;;5075156;28;20225;-68
2024/01/21 08:42:56;;;;;;;11.57;11.07;;;-0.30;99.90;;;;;;5072639;28;20200;-67
2024/01/21 08:45:22;;;;;;;12.07;11.57;;;-0.20;99.90;;;;;;5075553;28;20219;-66
2024/01/21 08:47:50;;;;;;;12.63;12.03;;;-0.20;99.90;;;;;;5074635;28;20221;-68
2024/01/21 08:50:17;;;;;;;12.77;12.27;;;-0.20;99.90;;;;;;5074623;28;20295;-66
2024/01/21 08:52:43;;;;;;;12.48;11.98;;;-0.20;99.90;;;;;;5067912;28;20199;-67
2024/01/21 08:55:10;;;;;;;12.60;12.10;;;-0.20;99.90;;;;;;5071325;28;20230;-66
2024/01/21 08:57:37;;;;;;;13.03;12.53;;;-0.10;99.90;;;;;;5069928;28;20200;-67
2024/01/21 09:00:06;;;;;;;13.43;12.83;;;-0.10;99.90;;;;;;5068232;28;20203;-66
2024/01/21 09:02:33;;;;;;;14.07;13.47;;;0.00;99.90;;;;;;5070402;28;20203;-67
2024/01/21 09:05:00;;;;;;;13.82;13.32;;;0.00;99.90;;;;;;5072927;28;20231;-66
2024/01/21 09:07:26;;;;;;;14.48;13.77;;;0.10;99.90;;;;;;5070471;28;20207;-66
2024/01/21 09:09:53;;;;;;;14.57;14.03;;;0.20;99.90;;;;;;5063426;28;20230;-67
2024/01/21 09:12:20;;;;;;;15.87;15.17;;;0.20;99.90;;;;;;5070150;28;20218;-67
2024/01/21 09:14:47;;;;;;;14.60;14.03;;;0.30;99.90;;;;;;5091240;28;20254;-70
2024/01/21 09:17:15;;;;;;;15.37;14.77;;;0.40;99.90;;;;;;5082080;28;20211;-68
2024/01/21 09:19:44;;;;;;;14.77;14.17;;;0.40;99.90;;;;;;5073482;28;20226;-68
2024/01/21 09:22:10;;;;;;;14.45;13.85;;;0.50;99.90;;;;;;5075417;28;20207;-68
2024/01/21 09:24:37;;;;;;;13.23;12.73;;;0.50;99.90;;;;;;5075779;28;20231;-65
2024/01/21 09:27:04;;;;;;;12.57;12.07;;;0.50;99.90;;;;;;5092600;28;20211;-68
2024/01/21 09:29:31;;;;;;;12.40;11.90;;;0.60;99.90;;;;;;5089737;28;20207;-65
2024/01/21 09:31:59;;;;;;;13.00;12.50;;;0.70;99.90;;;;;;5081679;28;20214;-66
2024/01/21 09:34:27;;;;;;;13.03;12.53;;;0.80;99.90;;;;;;5088303;28;20224;-66
2024/01/21 09:36:53;;;;;;;12.97;12.47;;;0.80;99.90;;;;;;5079807;28;20298;-67
2024/01/21 09:39:20;;;;;;;12.83;12.23;;;0.90;99.90;;;;;;5070431;28;20203;-66
2024/01/21 09:41:49;;;;;;;11.83;11.37;;;0.90;99.90;;;;;;5075282;28;20219;-66
2024/01/21 09:44:18;;;;;;;12.90;12.30;;;1.00;99.90;;;;;;5077707;28;20209;-69
2024/01/21 09:46:50;;;;;;;13.07;12.47;;;1.00;99.90;;;;;;5073944;28;20287;-67
2024/01/21 09:49:20;;;;;;;12.03;11.53;;;1.10;99.90;;;;;;5077101;28;20205;-67
2024/01/21 09:51:49;;;;;;;12.10;11.60;;;1.20;99.90;;;;;;5075057;28;20751;-67
2024/01/21 09:54:16;;;;;;;11.60;11.10;;;1.40;99.90;;;;;;5071829;28;20214;-67
2024/01/21 09:56:43;;;;;;;11.00;10.60;;;1.60;99.90;;;;;;5077389;28;20200;-67
2024/01/21 09:59:12;;;;;;;11.77;11.27;;;1.80;99.90;;;;;;5065872;28;20219;-66
2024/01/21 10:01:40;;;;;;;11.63;11.13;;;2.00;99.90;;;;;;5081673;28;20267;-66
2024/01/21 10:04:07;;;;;;;11.57;11.07;;;2.30;99.90;;;;;;5074012;28;20239;-68
2024/01/21 10:06:35;;;;;;;11.80;11.30;;;2.40;99.90;;;;;;5071879;28;20290;-68
2024/01/21 10:09:17;;;;;;;11.93;11.43;;;2.50;99.90;;;;;;5073414;28;20214;-66
2024/01/21 10:11:45;;;;;;;12.17;11.67;;;2.50;99.90;;;;;;5070443;28;20277;-68
2024/01/21 10:14:11;;;;;;;12.00;11.50;;;2.60;99.90;;;;;;5071525;28;20528;-68
2024/01/21 10:16:42;;;;;;;12.40;11.83;;;2.70;99.90;;;;;;5073429;28;20204;-66
2024/01/21 10:19:12;;;;;;;12.33;11.83;;;2.90;99.90;;;;;;5069072;28;20593;-68
2024/01/21 10:21:39;;;;;;;11.90;11.40;;;2.90;99.90;;;;;;5076771;28;20203;-68
2024/01/21 10:24:07;;;;;;;12.20;11.70;;;3.00;99.90;;;;;;5070178;28;20207;-68
2024/01/21 10:26:36;;;;;;;12.77;12.27;;;3.00;99.90;;;;;;5071768;28;20242;-67
2024/01/21 10:29:03;;;;;;;12.90;12.33;;;3.00;99.90;;;;;;5078153;28;20209;-67
2024/01/21 10:31:32;;;;;;;12.30;11.80;;;3.10;99.90;;;;;;5072079;28;20228;-68
2024/01/21 10:34:00;;;;;;;12.37;11.87;;;3.20;99.90;;;;;;5073243;28;20298;-66
2024/01/21 10:36:32;;;;;;;12.43;11.93;;;3.30;99.90;;;;;;5070135;28;20669;-70
2024/01/21 10:39:02;;;;;;;14.07;13.40;;;3.40;99.90;;;;;;5069120;28;20678;-65
2024/01/21 10:41:31;;;;;;;11.80;11.30;;;3.60;99.90;;;;;;5071496;28;20282;-68
2024/01/21 10:44:02;;;;;;;11.57;11.17;;;3.70;99.90;;;;;;5077368;28;20224;-67
2024/01/21 10:46:32;;;;;;;12.27;11.77;;;3.70;99.90;;;;;;5076510;28;20737;-69
2024/01/21 10:48:59;;;;;;;12.67;12.07;;;3.80;99.90;;;;;;5072891;28;20212;-67
2024/01/21 10:51:27;;;;;;;11.37;10.97;;;4.00;99.90;;;;;;5075213;28;20223;-67
2024/01/21 10:53:56;;;;;;;11.83;11.33;;;4.10;99.90;;;;;;5085375;28;20203;-67
2024/01/21 10:56:25;;;;;;;11.47;10.97;;;4.00;99.90;;;;;;5089764;28;20235;-67
2024/01/21 10:58:53;;;;;;;13.47;12.87;;;3.80;99.90;;;;;;5091937;28;20799;-67
2024/01/21 11:01:23;;;;;;;11.93;11.43;;;3.70;99.90;;;;;;5088759;28;20207;-67
2024/01/21 11:04:03;;;;;;;13.00;12.43;;;3.50;99.90;;;;;;5086294;28;20263;-68
2024/01/21 11:06:30;;;;;;;12.80;12.30;;;3.40;99.90;;;;;;5084876;28;20211;-67
2024/01/21 11:09:04;;;;;;;14.97;14.27;;;3.40;99.90;;;;;;5079964;28;20682;-69
2024/01/21 11:11:31;;;;;;;13.00;12.40;;;3.30;99.90;;;;;;5077228;28;20259;-68
2024/01/21 11:14:03;;;;;;;11.93;11.43;;;3.40;99.90;;;;;;5082012;28;20596;-69
2024/01/21 11:16:41;;;;;;;12.43;11.93;;;3.50;99.90;;;;;;5084038;28;20612;-69
2024/01/21 11:19:10;;;;;;;13.17;12.57;;;3.60;99.90;;;;;;5081235;28;20211;-67
2024/01/21 11:21:41;;;;;;;12.37;11.87;;;3.60;99.90;;;;;;5083156;28;20203;-69
2024/01/21 11:24:12;;;;;;;12.20;11.70;;;3.70;99.90;;;;;;5077509;28;20203;-68
2024/01/21 11:26:42;;;;;;;12.67;12.17;;;3.90;99.90;;;;;;5076657;28;20662;-68
2024/01/21 11:29:24;;;;;;;12.50;12.00;;;3.90;99.90;;;;;;5081008;28;20333;-67
2024/01/21 11:31:53;;;;;;;11.27;10.87;;;4.10;99.90;;;;;;5075294;28;20226;-67
2024/01/21 11:34:21;;;;;;;12.27;11.77;;;4.20;99.90;;;;;;5079330;28;20214;-68
2024/01/21 11:36:48;;;;;;;12.10;11.60;;;4.30;99.90;;;;;;5082545;28;20207;-70
2024/01/21 11:39:15;;;;;;;12.43;11.93;;;4.40;99.90;;;;;;5079584;28;20198;-68
2024/01/21 11:41:44;;;;;;;12.30;11.80;;;4.50;99.90;;;;;;5088010;28;20226;-68
2024/01/21 11:44:15;;;;;;;12.13;11.63;;;4.50;99.90;;;;;;5085776;28;20214;-70
2024/01/21 11:46:42;;;;;;;12.30;11.80;;;4.60;99.90;;;;;;5086125;28;20208;-67
2024/01/21 11:49:11;;;;;;;12.40;11.90;;;4.70;99.90;;;;;;5089686;28;20233;-70
2024/01/21 11:51:38;;;;;;;12.80;12.30;;;4.70;99.90;;;;;;5083605;28;20311;-69
2024/01/21 11:54:06;;;;;;;12.20;11.70;;;4.90;99.90;;;;;;5077886;28;20214;-68
2024/01/21 11:56:35;;;;;;;11.73;11.23;;;5.00;99.90;;;;;;5071631;28;20203;-68
2024/01/21 11:59:01;;;;;;;12.40;11.90;;;5.10;99.90;;;;;;5078190;28;20571;-67
2024/01/21 12:01:30;;;;;;;12.00;11.50;;;5.10;99.90;;;;;;5072423;28;20682;-68
2024/01/21 12:03:57;;;;;;;12.07;11.57;;;5.20;99.90;;;;;;5071451;28;20202;-68
2024/01/21 12:06:26;;;;;;;11.53;11.13;;;5.30;99.90;;;;;;5073042;28;20227;-68
2024/01/21 12:08:54;;;;;;;13.83;13.23;;;5.40;99.90;;;;;;5077644;28;20210;-69
2024/01/21 12:11:21;;;;;;;11.43;11.03;;;5.50;99.90;;;;;;5077746;28;20601;-68
2024/01/21 12:13:49;;;;;;;11.90;11.50;;;5.60;99.90;;;;;;5071817;28;20199;-66
2024/01/21 12:16:18;;;;;;;11.90;11.47;;;5.70;99.90;;;;;;5073194;28;20222;-67
2024/01/21 12:18:51;;;;;;;12.93;12.43;;;5.80;99.90;;;;;;5072473;28;20219;-69
2024/01/21 12:21:18;;;;;;;11.63;11.23;;;5.90;99.90;;;;;;5075084;28;20222;-67
2024/01/21 12:23:48;;;;;;;11.70;11.30;;;6.10;99.90;;;;;;5073017;28;20211;-68
2024/01/21 12:26:17;;;;;;;11.93;11.43;;;6.20;99.90;;;;;;5073491;28;20686;-69
2024/01/21 12:28:57;;;;;;;12.17;11.73;;;6.30;99.90;;;;;;5079685;28;20291;-69
2024/01/21 12:31:28;;;;;;;11.63;11.23;;;6.40;99.90;;;;;;5077424;28;20219;-70